createdAt,value
2019-06-20T00:00:05.038Z,19.53
2019-06-20T00:02:36.384Z,19.41
2019-06-20T00:05:07.003Z,19.31
2019-06-20T00:07:36.772Z,19.18
2019-06-20T00:10:06.667Z,18.94
2019-06-20T00:12:36.376Z,18.81
2019-06-20T00:15:06.624Z,18.76
2019-06-20T00:17:36.329Z,18.73
2019-06-20T00:20:06.405Z,18.70
2019-06-20T00:22:36.099Z,18.68
2019-06-20T00:25:06.150Z,18.67
2019-06-20T00:27:35.827Z,18.69
2019-06-20T00:30:07.084Z,18.70
2019-06-20T00:32:36.845Z,18.77
2019-06-20T00:35:06.633Z,18.85
2019-06-20T00:37:36.323Z,18.88
2019-06-20T00:40:07.076Z,18.91
2019-06-20T00:42:36.783Z,18.89
2019-06-20T00:45:07.357Z,18.87
2019-06-20T00:47:37.064Z,18.84
2019-06-20T00:50:06.991Z,18.87
2019-06-20T00:52:37.653Z,18.88
2019-06-20T00:55:07.941Z,18.84
2019-06-20T00:57:37.650Z,18.85
2019-06-20T01:00:07.787Z,18.78
2019-06-20T01:02:39.031Z,18.71
2019-06-20T01:05:09.309Z,18.64
2019-06-20T01:07:39.099Z,18.53
2019-06-20T01:10:09.607Z,18.43
2019-06-20T01:12:39.462Z,18.36
2019-06-20T01:15:10.542Z,18.28
2019-06-20T01:17:40.237Z,18.26
2019-06-20T01:20:11.809Z,18.32
2019-06-20T01:22:41.513Z,18.40
2019-06-20T01:25:11.859Z,18.45
2019-06-20T01:27:41.554Z,18.52
2019-06-20T01:30:12.314Z,18.50
2019-06-20T01:32:42.008Z,18.48
2019-06-20T01:35:12.543Z,18.48
2019-06-20T01:37:42.293Z,18.47
2019-06-20T01:40:12.358Z,18.48
2019-06-20T01:42:42.107Z,18.52
2019-06-20T01:45:12.382Z,18.53
2019-06-20T01:47:42.108Z,18.45
2019-06-20T01:50:12.412Z,18.31
2019-06-20T01:52:42.129Z,18.10
2019-06-20T01:55:12.289Z,17.91
2019-06-20T01:57:43.043Z,17.80
2019-06-20T02:00:14.701Z,17.76
2019-06-20T02:02:44.488Z,17.74
2019-06-20T02:05:14.658Z,17.79
2019-06-20T02:07:44.448Z,17.84
2019-06-20T02:10:14.391Z,17.97
2019-06-20T02:12:44.187Z,18.10
2019-06-20T02:15:13.957Z,18.18
2019-06-20T02:17:43.650Z,18.14
2019-06-20T02:20:29.226Z,18.02
2019-06-20T02:22:58.978Z,17.86
2019-06-20T02:25:29.101Z,17.71
2019-06-20T02:27:58.873Z,17.76
2019-06-20T02:30:28.766Z,17.85
2019-06-20T02:32:58.479Z,17.83
2019-06-20T02:35:28.528Z,17.81
2019-06-20T02:37:58.331Z,17.80
2019-06-20T02:40:28.151Z,17.88
2019-06-20T02:42:57.880Z,17.83
2019-06-20T02:45:27.623Z,17.83
2019-06-20T02:47:57.368Z,17.81
2019-06-20T02:50:27.436Z,17.83
2019-06-20T02:52:57.755Z,17.80
2019-06-20T02:55:27.548Z,17.74
2019-06-20T02:57:57.265Z,17.58
2019-06-20T03:00:52.473Z,17.54
2019-06-20T03:03:22.298Z,17.45
2019-06-20T03:05:52.272Z,17.40
2019-06-20T03:08:21.993Z,17.33
2019-06-20T03:10:52.926Z,17.34
2019-06-20T03:13:22.660Z,17.40
2019-06-20T03:15:52.370Z,17.42
2019-06-20T03:18:22.169Z,17.41
2019-06-20T03:20:51.873Z,17.41
2019-06-20T03:23:21.574Z,17.40
2019-06-20T03:25:51.274Z,17.39
2019-06-20T03:28:21.046Z,17.44
2019-06-20T03:30:50.870Z,17.57
2019-06-20T03:33:20.611Z,17.69
2019-06-20T03:35:50.363Z,17.77
2019-06-20T03:38:20.128Z,17.86
2019-06-20T03:40:49.919Z,17.95
2019-06-20T03:43:19.637Z,18.07
2019-06-20T03:45:49.528Z,18.34
2019-06-20T03:48:19.231Z,18.60
2019-06-20T03:50:49.119Z,18.79
2019-06-20T03:53:19.959Z,19.19
2019-06-20T03:55:49.780Z,19.60
2019-06-20T03:58:20.279Z,19.92
2019-06-20T04:00:50.066Z,20.40
2019-06-20T04:03:19.874Z,20.74
2019-06-20T04:05:49.760Z,20.76
2019-06-20T04:08:19.466Z,20.67
2019-06-20T04:10:49.312Z,21.06
2019-06-20T04:13:19.031Z,21.61
2019-06-20T04:15:48.794Z,22.15
2019-06-20T04:18:18.517Z,22.53
2019-06-20T04:20:59.094Z,22.76
2019-06-20T04:23:30.493Z,22.95
2019-06-20T04:26:00.182Z,22.99
2019-06-20T04:28:30.040Z,22.85
2019-06-20T04:30:59.925Z,22.44
2019-06-20T04:33:29.792Z,21.92
2019-06-20T04:35:59.567Z,21.51
2019-06-20T04:38:29.426Z,20.92
2019-06-20T04:40:59.105Z,20.92
2019-06-20T04:43:28.854Z,20.78
2019-06-20T04:46:15.322Z,20.82
2019-06-20T04:48:45.046Z,20.92
2019-06-20T04:51:14.770Z,20.84
2019-06-20T04:53:44.491Z,20.95
2019-06-20T04:56:14.169Z,20.83
2019-06-20T04:58:43.884Z,20.75
2019-06-20T05:01:13.571Z,20.73
2019-06-20T05:03:43.287Z,20.76
2019-06-20T05:06:13.055Z,20.76
2019-06-20T05:08:42.773Z,20.78
2019-06-20T05:11:12.464Z,20.78
2019-06-20T05:13:42.177Z,20.82
2019-06-20T05:16:11.884Z,20.82
2019-06-20T05:18:41.776Z,20.88
2019-06-20T05:21:11.535Z,20.89
2019-06-20T05:23:41.320Z,21.02
2019-06-20T05:26:11.100Z,21.16
2019-06-20T05:28:40.843Z,21.23
2019-06-20T05:31:10.602Z,21.36
2019-06-20T05:33:40.318Z,21.46
2019-06-20T05:36:10.076Z,21.45
2019-06-20T05:38:39.787Z,21.44
2019-06-20T05:41:09.592Z,21.40
2019-06-20T05:43:39.313Z,21.34
2019-06-20T05:46:11.153Z,21.26
2019-06-20T05:48:40.495Z,21.20
2019-06-20T05:51:10.281Z,21.11
2019-06-20T05:53:40.012Z,21.13
2019-06-20T05:56:09.789Z,21.17
2019-06-20T05:58:39.480Z,21.20
2019-06-20T06:01:09.307Z,21.23
2019-06-20T06:03:39.067Z,21.28
2019-06-20T06:06:08.785Z,21.33
2019-06-20T06:08:38.461Z,21.28
2019-06-20T06:11:08.476Z,21.20
2019-06-20T06:13:38.305Z,21.16
2019-06-20T06:16:08.260Z,21.12
2019-06-20T06:18:37.950Z,21.12
2019-06-20T06:21:07.745Z,21.04
2019-06-20T06:23:37.464Z,20.99
2019-06-20T06:26:07.458Z,20.98
2019-06-20T06:28:37.202Z,20.98
2019-06-20T06:31:06.901Z,20.92
2019-06-20T06:33:36.644Z,20.88
2019-06-20T06:36:06.458Z,20.88
2019-06-20T06:38:36.140Z,20.95
2019-06-20T06:41:06.982Z,21.01
2019-06-20T06:43:41.762Z,20.95
2019-06-20T06:46:08.210Z,20.95
2019-06-20T06:48:37.977Z,20.85
2019-06-20T06:51:07.718Z,20.86
2019-06-20T06:53:37.496Z,21.05
2019-06-20T06:56:07.217Z,21.31
2019-06-20T06:58:36.912Z,21.35
2019-06-20T07:01:10.122Z,21.31
2019-06-20T07:03:37.996Z,21.25
2019-06-20T07:06:07.826Z,21.16
2019-06-20T07:08:37.623Z,21.00
2019-06-20T07:11:07.312Z,20.92
2019-06-20T07:13:37.234Z,20.89
2019-06-20T07:16:07.200Z,21.00
2019-06-20T07:18:36.975Z,20.95
2019-06-20T07:21:06.683Z,20.95
2019-06-20T07:23:36.410Z,20.79
2019-06-20T07:26:06.311Z,20.87
2019-06-20T07:28:36.005Z,20.78
2019-06-20T07:31:06.038Z,20.81
2019-06-20T07:33:35.836Z,20.93
2019-06-20T07:36:06.277Z,20.95
2019-06-20T07:38:36.002Z,20.97
2019-06-20T07:41:05.706Z,21.03
2019-06-20T07:43:35.405Z,21.13
2019-06-20T07:46:06.235Z,21.27
2019-06-20T07:48:36.047Z,21.39
2019-06-20T07:51:06.471Z,21.62
2019-06-20T07:53:36.166Z,21.97
2019-06-20T07:56:09.313Z,22.28
2019-06-20T07:58:37.342Z,22.45
2019-06-20T08:01:07.114Z,22.43
2019-06-20T08:03:36.814Z,22.44
2019-06-20T08:06:06.875Z,22.34
2019-06-20T08:08:36.579Z,22.59
2019-06-20T08:11:06.293Z,22.76
2019-06-20T08:13:36.030Z,22.97
2019-06-20T08:16:05.922Z,23.13
2019-06-20T08:18:35.632Z,23.37
2019-06-20T08:21:05.496Z,23.71
2019-06-20T08:23:35.192Z,24.20
2019-06-20T08:26:05.173Z,24.57
2019-06-20T08:28:34.861Z,24.88
2019-06-20T08:31:04.861Z,24.98
2019-06-20T08:33:34.779Z,24.96
2019-06-20T08:36:04.681Z,24.93
2019-06-20T08:38:34.354Z,25.22
2019-06-20T08:41:06.465Z,25.69
2019-06-20T08:43:35.740Z,26.78
2019-06-20T08:46:09.928Z,27.94
2019-06-20T08:48:35.303Z,29.46
2019-06-20T08:51:04.523Z,29.80
2019-06-20T08:53:33.586Z,30.55
2019-06-20T08:56:03.223Z,30.00
2019-06-20T08:58:32.090Z,29.12
2019-06-20T09:03:31.351Z,29.38
2019-06-20T09:06:00.183Z,29.20
2019-06-20T09:08:29.210Z,28.88
2019-06-20T09:10:57.951Z,29.67
2019-06-20T09:13:26.735Z,30.10
2019-06-20T09:15:56.737Z,29.40
2019-06-20T09:18:25.804Z,28.53
2019-06-20T09:20:55.871Z,28.08
2019-06-20T09:23:24.836Z,28.56
2019-06-20T09:25:53.607Z,29.06
2019-06-20T09:28:22.442Z,28.81
2019-06-20T09:30:52.225Z,29.69
2019-06-20T09:33:21.625Z,30.80
2019-06-20T09:35:52.698Z,31.98
2019-06-20T09:38:23.889Z,31.81
2019-06-20T09:40:54.773Z,31.03
2019-06-20T09:43:27.770Z,30.62
2019-06-20T09:45:56.141Z,30.18
2019-06-20T09:48:26.010Z,30.68
2019-06-20T09:50:56.930Z,31.09
2019-06-20T09:53:26.851Z,30.12
2019-06-20T09:55:57.778Z,29.32
2019-06-20T09:58:27.576Z,28.49
2019-06-20T10:00:57.541Z,28.91
2019-06-20T10:03:27.512Z,28.55
2019-06-20T10:05:57.373Z,27.99
2019-06-20T10:08:27.116Z,28.58
2019-06-20T10:10:56.805Z,28.20
2019-06-20T10:13:26.776Z,28.37
2019-06-20T10:15:56.695Z,29.47
2019-06-20T10:18:26.441Z,28.96
2019-06-20T10:20:57.661Z,28.06
2019-06-20T10:23:27.404Z,27.39
2019-06-20T10:25:58.275Z,27.01
2019-06-20T10:28:28.062Z,27.44
2019-06-20T10:30:58.046Z,29.10
2019-06-20T10:33:27.848Z,30.62
2019-06-20T10:35:57.577Z,32.03
2019-06-20T10:38:28.324Z,32.52
2019-06-20T10:40:59.991Z,32.51
2019-06-20T10:43:29.664Z,31.24
2019-06-20T10:45:59.345Z,31.09
2019-06-20T10:48:29.219Z,31.90
2019-06-20T10:51:17.938Z,32.60
2019-06-20T10:53:49.194Z,33.08
2019-06-20T10:56:19.094Z,32.20
2019-06-20T10:58:48.802Z,31.92
2019-06-20T11:01:18.582Z,31.28
2019-06-20T11:03:49.912Z,31.57
2019-06-20T11:06:19.857Z,31.90
2019-06-20T11:08:49.493Z,33.06
2019-06-20T11:11:19.301Z,33.57
2019-06-20T11:13:48.605Z,33.82
2019-06-20T11:16:18.164Z,32.39
2019-06-20T11:18:47.045Z,31.04
2019-06-20T11:21:16.666Z,29.54
2019-06-20T11:23:47.414Z,29.30
2019-06-20T11:26:17.155Z,30.56
2019-06-20T11:28:48.647Z,31.29
2019-06-20T11:31:18.445Z,32.01
2019-06-20T11:33:48.446Z,32.85
2019-06-20T11:36:19.176Z,32.74
2019-06-20T11:38:49.949Z,31.71
2019-06-20T11:41:19.696Z,31.11
2019-06-20T11:43:49.508Z,30.51
2019-06-20T11:46:19.297Z,29.77
2019-06-20T11:48:48.984Z,29.30
2019-06-20T11:51:18.705Z,29.28
2019-06-20T11:53:48.496Z,30.33
2019-06-20T11:56:18.253Z,31.65
2019-06-20T11:58:47.958Z,32.11
2019-06-20T12:01:32.094Z,31.34
2019-06-20T12:03:49.165Z,30.27
2019-06-20T12:06:18.883Z,29.22
2019-06-20T12:08:48.958Z,28.65
2019-06-20T12:11:18.877Z,28.28
2019-06-20T12:13:48.698Z,28.14
2019-06-20T12:16:17.625Z,27.98
2019-06-20T12:18:47.299Z,27.89
2019-06-20T12:21:16.289Z,27.87
2019-06-20T12:23:45.085Z,27.79
2019-06-20T12:26:13.857Z,28.08
2019-06-20T12:28:42.579Z,28.56
2019-06-20T12:31:19.344Z,28.87
2019-06-20T12:33:42.609Z,29.35
2019-06-20T12:36:12.312Z,30.69
2019-06-20T12:38:43.239Z,31.88
2019-06-20T12:41:14.483Z,32.35
2019-06-20T12:43:44.458Z,32.36
2019-06-20T12:46:14.184Z,32.08
2019-06-20T12:48:45.067Z,31.45
2019-06-20T12:51:14.892Z,31.12
2019-06-20T12:53:44.587Z,30.64
2019-06-20T12:56:16.003Z,29.91
2019-06-20T12:58:46.697Z,29.38
2019-06-20T13:01:16.613Z,29.50
2019-06-20T13:03:46.440Z,29.53
2019-06-20T13:06:16.189Z,29.47
2019-06-20T13:08:47.298Z,29.33
2019-06-20T13:11:17.943Z,29.27
2019-06-20T13:13:48.970Z,29.35
2019-06-20T13:16:18.897Z,29.21
2019-06-20T13:18:50.430Z,28.97
2019-06-20T13:21:21.138Z,29.03
2019-06-20T13:23:50.942Z,29.18
2019-06-20T13:26:20.641Z,29.23
2019-06-20T13:29:03.536Z,29.22
2019-06-20T13:31:21.821Z,29.20
2019-06-20T13:33:51.526Z,29.06
2019-06-20T13:36:21.227Z,29.05
2019-06-20T13:38:50.998Z,28.70
2019-06-20T13:41:20.868Z,28.33
2019-06-20T13:43:50.557Z,28.05
2019-06-20T13:46:20.304Z,27.81
2019-06-20T13:48:50.079Z,27.86
2019-06-20T13:51:19.817Z,27.99
2019-06-20T13:53:50.657Z,27.93
2019-06-20T13:56:20.618Z,27.97
2019-06-20T13:58:51.189Z,28.14
2019-06-20T14:01:20.979Z,28.35
2019-06-20T14:03:50.915Z,28.43
2019-06-20T14:06:21.788Z,28.52
2019-06-20T14:08:51.478Z,28.49
2019-06-20T14:11:21.207Z,28.39
2019-06-20T14:14:10.925Z,28.29
2019-06-20T14:16:41.339Z,28.43
2019-06-20T14:19:12.675Z,28.60
2019-06-20T14:21:43.765Z,28.87
2019-06-20T14:24:13.579Z,28.81
2019-06-20T14:26:45.069Z,28.69
2019-06-20T14:29:14.768Z,28.76
2019-06-20T14:31:45.524Z,28.80
2019-06-20T14:34:15.254Z,28.72
2019-06-20T14:36:46.697Z,28.46
2019-06-20T14:39:16.330Z,28.48
2019-06-20T14:41:46.426Z,28.48
2019-06-20T14:44:16.260Z,28.36
2019-06-20T14:46:46.043Z,28.15
2019-06-20T14:49:15.818Z,28.29
2019-06-20T14:51:47.136Z,28.40
2019-06-20T14:54:19.690Z,28.42
2019-06-20T14:56:49.640Z,28.18
2019-06-20T14:59:19.605Z,28.03
2019-06-20T15:01:50.620Z,27.77
2019-06-20T15:04:20.457Z,27.54
2019-06-20T15:06:50.581Z,27.57
2019-06-20T15:09:20.327Z,27.73
2019-06-20T15:11:51.285Z,27.77
2019-06-20T15:14:21.134Z,27.57
2019-06-20T15:16:51.257Z,27.25
2019-06-20T15:19:21.133Z,27.08
2019-06-20T15:21:52.086Z,27.07
2019-06-20T15:24:21.857Z,27.03
2019-06-20T15:26:52.451Z,26.96
2019-06-20T15:29:22.230Z,26.95
2019-06-20T15:31:52.657Z,27.05
2019-06-20T15:34:22.509Z,27.24
2019-06-20T15:36:53.390Z,27.42
2019-06-20T15:39:23.226Z,27.42
2019-06-20T15:41:54.169Z,27.29
2019-06-20T15:44:23.972Z,27.09
2019-06-20T15:46:53.689Z,26.93
2019-06-20T15:49:23.383Z,26.82
2019-06-20T15:51:53.096Z,26.75
2019-06-20T15:54:24.583Z,26.79
2019-06-20T15:56:54.406Z,26.91
2019-06-20T15:59:24.134Z,27.03
2019-06-20T16:01:53.860Z,27.20
2019-06-20T16:04:23.564Z,27.29
2019-06-20T16:06:53.365Z,27.28
2019-06-20T16:09:23.525Z,27.09
2019-06-20T16:11:53.330Z,26.99
2019-06-20T16:14:23.156Z,26.91
2019-06-20T16:16:52.866Z,26.83
2019-06-20T16:19:22.751Z,26.81
2019-06-20T16:21:52.479Z,26.84
2019-06-20T16:24:22.193Z,26.86
2019-06-20T16:26:52.026Z,26.89
2019-06-20T16:29:21.784Z,26.99
2019-06-20T16:31:51.528Z,27.09
2019-06-20T16:34:21.337Z,27.08
2019-06-20T16:36:51.165Z,27.00
2019-06-20T16:39:20.883Z,26.90
2019-06-20T16:41:50.600Z,26.86
2019-06-20T16:44:21.844Z,26.78
2019-06-20T16:46:51.786Z,26.66
2019-06-20T16:49:21.489Z,26.52
2019-06-20T16:51:51.281Z,26.36
2019-06-20T16:54:21.066Z,26.16
2019-06-20T16:56:51.198Z,26.03
2019-06-20T16:59:20.903Z,26.07
2019-06-20T17:01:50.819Z,26.12
2019-06-20T17:04:20.654Z,26.22
2019-06-20T17:06:50.422Z,26.30
2019-06-20T17:09:20.345Z,26.35
2019-06-20T17:11:50.852Z,26.40
2019-06-20T17:14:20.897Z,26.40
2019-06-20T17:16:50.737Z,26.38
2019-06-20T17:19:20.523Z,26.36
2019-06-20T17:21:50.514Z,26.37
2019-06-20T17:24:20.376Z,26.35
2019-06-20T17:26:50.260Z,26.27
2019-06-20T17:29:19.991Z,26.19
2019-06-20T17:31:49.807Z,26.13
2019-06-20T17:34:19.537Z,26.04
2019-06-20T17:36:49.470Z,25.98
2019-06-20T17:39:19.401Z,25.93
2019-06-20T17:41:55.264Z,25.90
2019-06-20T17:44:20.522Z,25.87
2019-06-20T17:46:50.923Z,25.87
2019-06-20T17:49:20.611Z,25.82
2019-06-20T17:51:51.335Z,25.70
2019-06-20T17:54:22.027Z,25.55
2019-06-20T17:56:51.864Z,25.46
2019-06-20T17:59:22.853Z,25.41
2019-06-20T18:01:52.762Z,25.33
2019-06-20T18:04:22.475Z,25.26
2019-06-20T18:06:52.179Z,25.21
2019-06-20T18:09:21.891Z,25.19
2019-06-20T18:11:51.589Z,25.12
2019-06-20T18:14:21.329Z,25.06
2019-06-20T18:16:51.388Z,25.02
2019-06-20T18:19:21.329Z,24.98
2019-06-20T18:21:52.098Z,24.96
2019-06-20T18:24:21.871Z,24.95
2019-06-20T18:26:51.559Z,24.91
2019-06-20T18:29:21.361Z,24.87
2019-06-20T18:31:51.232Z,24.82
2019-06-20T18:34:30.115Z,24.77
2019-06-20T18:36:52.400Z,24.73
2019-06-20T18:39:22.191Z,24.68
2019-06-20T18:41:51.895Z,24.60
2019-06-20T18:44:21.744Z,24.54
2019-06-20T18:46:51.464Z,24.47
2019-06-20T18:49:21.226Z,24.43
2019-06-20T18:51:51.022Z,24.36
2019-06-20T18:54:20.796Z,24.33
2019-06-20T18:56:50.649Z,24.26
2019-06-20T18:59:20.464Z,24.18
2019-06-20T19:01:52.292Z,24.12
2019-06-20T19:04:22.181Z,24.07
2019-06-20T19:06:51.969Z,24.01
2019-06-20T19:09:21.897Z,23.95
2019-06-20T19:11:51.808Z,23.90
2019-06-20T19:14:21.566Z,23.86
2019-06-20T19:16:51.352Z,23.77
2019-06-20T19:19:21.063Z,23.63
2019-06-20T19:21:50.823Z,23.47
2019-06-20T19:24:20.654Z,23.38
2019-06-20T19:26:50.511Z,23.26
2019-06-20T19:29:20.194Z,23.15
2019-06-20T19:31:49.895Z,23.06
2019-06-20T19:34:19.976Z,22.96
2019-06-20T19:36:50.252Z,22.89
2019-06-20T19:39:19.928Z,22.86
2019-06-20T19:41:49.830Z,22.83
2019-06-20T19:44:19.551Z,22.79
2019-06-20T19:46:49.266Z,22.76
2019-06-20T19:49:19.045Z,22.73
2019-06-20T19:51:48.896Z,22.70
2019-06-20T19:54:18.865Z,22.73
2019-06-20T19:56:48.726Z,22.81
2019-06-20T19:59:18.572Z,22.88
2019-06-20T20:01:48.648Z,22.93
2019-06-20T20:04:18.595Z,22.92
2019-06-20T20:06:48.608Z,22.96
2019-06-20T20:09:18.539Z,23.03
2019-06-20T20:11:48.310Z,22.96
2019-06-20T20:14:18.041Z,22.80
2019-06-20T20:16:47.907Z,22.66
2019-06-20T20:19:17.580Z,22.56
2019-06-20T20:21:47.312Z,22.51
2019-06-20T20:24:17.012Z,22.48
2019-06-20T20:26:46.707Z,22.38
2019-06-20T20:29:16.476Z,22.31
2019-06-20T20:31:46.180Z,22.21
2019-06-20T20:34:15.894Z,22.08
2019-06-20T20:36:45.606Z,22.01
2019-06-20T20:39:17.012Z,21.97
2019-06-20T20:41:46.707Z,21.94
2019-06-20T20:44:16.408Z,21.91
2019-06-20T20:46:46.200Z,21.94
2019-06-20T20:49:15.996Z,21.98
2019-06-20T20:51:45.684Z,21.88
2019-06-20T20:54:15.453Z,21.76
2019-06-20T20:56:45.167Z,21.55
2019-06-20T20:59:14.882Z,21.38
2019-06-20T21:01:44.585Z,21.25
2019-06-20T21:04:14.300Z,21.05
2019-06-20T21:06:44.020Z,20.86
2019-06-20T21:09:13.768Z,20.65
2019-06-20T21:11:43.521Z,20.44
2019-06-20T21:14:13.267Z,20.21
2019-06-20T21:16:42.970Z,20.04
2019-06-20T21:19:13.139Z,19.91
2019-06-20T21:21:42.883Z,19.83
2019-06-20T21:24:13.037Z,19.74
2019-06-20T21:26:49.356Z,19.65
2019-06-20T21:29:14.188Z,19.57
2019-06-20T21:31:43.939Z,19.53
2019-06-20T21:34:13.666Z,19.46
2019-06-20T21:36:43.371Z,19.42
2019-06-20T21:39:13.095Z,19.43
2019-06-20T21:41:42.811Z,19.33
2019-06-20T21:44:12.579Z,19.10
2019-06-20T21:46:42.933Z,18.52
2019-06-20T21:49:14.782Z,17.87
2019-06-20T21:51:44.936Z,17.40
2019-06-20T21:54:14.856Z,17.12
2019-06-20T21:56:44.661Z,16.99
2019-06-20T21:59:14.464Z,16.96
2019-06-20T22:01:48.104Z,16.94
2019-06-20T22:04:15.973Z,16.97
2019-06-20T22:06:45.647Z,17.04
2019-06-20T22:09:15.449Z,17.09
2019-06-20T22:11:46.114Z,17.06
2019-06-20T22:14:16.152Z,17.09
2019-06-20T22:16:45.836Z,17.10
2019-06-20T22:19:15.536Z,17.05
2019-06-20T22:21:45.380Z,17.03
2019-06-20T22:24:15.144Z,16.97
2019-06-20T22:26:44.915Z,16.99
2019-06-20T22:29:14.700Z,17.04
2019-06-20T22:31:44.417Z,17.04
2019-06-20T22:34:14.206Z,17.06
2019-06-20T22:36:43.941Z,17.09
2019-06-20T22:39:13.679Z,17.11
2019-06-20T22:41:43.424Z,17.18
2019-06-20T22:44:13.119Z,17.21
2019-06-20T22:46:42.834Z,17.28
2019-06-20T22:49:12.529Z,17.36
2019-06-20T22:51:42.240Z,17.35
2019-06-20T22:54:11.963Z,17.32
2019-06-20T22:56:41.771Z,17.26
2019-06-20T22:59:11.559Z,17.18
2019-06-20T23:01:41.390Z,17.06
2019-06-20T23:04:12.103Z,16.91
2019-06-20T23:06:55.445Z,16.79
2019-06-20T23:09:13.236Z,16.73
2019-06-20T23:11:42.981Z,16.68
2019-06-20T23:14:12.728Z,16.68
2019-06-20T23:16:43.554Z,16.68
2019-06-20T23:19:13.244Z,16.63
2019-06-20T23:21:42.987Z,16.59
2019-06-20T23:24:12.745Z,16.58
2019-06-20T23:26:45.475Z,16.58
2019-06-20T23:29:23.787Z,16.66
2019-06-20T23:31:54.959Z,16.70
2019-06-20T23:34:24.636Z,16.74
2019-06-20T23:36:54.343Z,16.76
2019-06-20T23:39:24.104Z,16.78
2019-06-20T23:41:53.871Z,16.85
2019-06-20T23:44:23.622Z,16.91
2019-06-20T23:46:53.326Z,16.95
2019-06-20T23:49:23.018Z,17.03
2019-06-20T23:51:58.209Z,17.07
2019-06-20T23:54:27.970Z,17.11
2019-06-20T23:56:57.755Z,17.14
2019-06-20T23:59:27.473Z,17.13
